createdAt,value
2019-01-25T00:00:51.888Z,81.03
2019-01-25T00:03:38.941Z,81.17
2019-01-25T00:06:25.986Z,78.90
2019-01-25T00:09:12.992Z,86.60
2019-01-25T00:12:00.182Z,67.90
2019-01-25T00:14:47.085Z,98.20
2019-01-25T00:17:34.332Z,72.97
2019-01-25T00:20:21.344Z,75.03
2019-01-25T00:23:08.304Z,89.07
2019-01-25T00:25:55.555Z,95.43
2019-01-25T00:28:42.533Z,69.07
2019-01-25T00:31:29.532Z,77.63
2019-01-25T00:34:17.098Z,66.40
2019-01-25T00:37:04.356Z,76.40
2019-01-25T00:39:51.407Z,76.20
2019-01-25T00:42:38.384Z,94.93
2019-01-25T00:45:25.131Z,86.43
2019-01-25T00:48:12.124Z,89.60
2019-01-25T00:50:59.157Z,84.17
2019-01-25T00:53:46.518Z,71.30
2019-01-25T00:56:33.925Z,72.93
2019-01-25T00:59:20.751Z,76.80
2019-01-25T01:02:08.134Z,79.63
2019-01-25T01:04:55.190Z,94.93
2019-01-25T01:07:42.331Z,69.07
2019-01-25T01:10:29.771Z,89.90
2019-01-25T01:13:16.973Z,83.00
2019-01-25T01:16:04.550Z,80.80
2019-01-25T01:18:51.583Z,100.73
2019-01-25T01:21:38.731Z,84.00
2019-01-25T01:24:25.698Z,75.77
2019-01-25T01:27:12.423Z,89.87
2019-01-25T01:29:59.460Z,69.43
2019-01-25T01:32:46.455Z,96.43
2019-01-25T01:35:34.134Z,82.23
2019-01-25T01:38:21.077Z,81.40
2019-01-25T01:41:07.793Z,73.13
2019-01-25T01:43:54.875Z,82.10
2019-01-25T01:46:41.870Z,84.63
2019-01-25T01:49:29.731Z,83.43
2019-01-25T01:52:16.806Z,102.17
2019-01-25T01:55:03.825Z,82.53
2019-01-25T01:57:51.128Z,78.50
2019-01-25T02:00:38.248Z,91.77
2019-01-25T02:03:25.530Z,74.27
2019-01-25T02:06:12.891Z,91.00
2019-01-25T02:08:59.805Z,93.70
2019-01-25T02:11:47.022Z,74.87
2019-01-25T02:14:34.122Z,85.47
2019-01-25T02:17:21.461Z,93.87
2019-01-25T02:20:09.782Z,96.13
2019-01-25T02:22:56.588Z,82.70
2019-01-25T02:25:43.613Z,100.93
2019-01-25T02:28:30.871Z,91.17
2019-01-25T02:31:18.150Z,86.40
2019-01-25T02:34:04.939Z,83.17
2019-01-25T02:36:52.069Z,89.40
2019-01-25T02:39:39.349Z,83.07
2019-01-25T02:42:26.640Z,81.23
2019-01-25T02:45:13.900Z,76.30
2019-01-25T02:48:00.681Z,67.00
2019-01-25T02:50:48.144Z,64.67
2019-01-25T02:53:34.945Z,73.83
2019-01-25T02:56:21.886Z,79.67
2019-01-25T02:59:09.150Z,78.07
2019-01-25T03:01:56.089Z,99.97
2019-01-25T03:04:43.377Z,69.97
2019-01-25T03:07:30.219Z,64.37
2019-01-25T03:10:17.531Z,81.30
2019-01-25T03:13:04.999Z,77.43
2019-01-25T03:15:52.652Z,69.63
2019-01-25T03:18:39.934Z,66.30
2019-01-25T03:21:27.070Z,59.43
2019-01-25T03:24:13.857Z,71.97
2019-01-25T03:27:00.801Z,70.77
2019-01-25T03:29:47.473Z,75.70
2019-01-25T03:32:34.494Z,64.80
2019-01-25T03:35:21.951Z,56.90
2019-01-25T03:38:08.960Z,60.93
2019-01-25T03:40:55.769Z,52.47
2019-01-25T03:43:43.190Z,55.77
2019-01-25T03:46:30.543Z,49.70
2019-01-25T03:49:18.122Z,60.60
2019-01-25T03:52:05.400Z,51.63
2019-01-25T03:54:52.606Z,54.03
2019-01-25T03:57:39.331Z,50.40
2019-01-25T04:00:27.394Z,50.23
2019-01-25T04:03:14.632Z,50.43
2019-01-25T04:06:01.631Z,43.70
2019-01-25T04:08:48.525Z,45.60
2019-01-25T04:11:35.657Z,47.13
2019-01-25T04:14:22.669Z,43.37
2019-01-25T04:17:09.970Z,35.07
2019-01-25T04:19:57.235Z,58.93
2019-01-25T04:22:44.228Z,44.70
2019-01-25T04:25:31.045Z,51.70
2019-01-25T04:28:18.033Z,47.07
2019-01-25T04:31:05.172Z,47.50
2019-01-25T04:33:52.602Z,33.97
2019-01-25T04:36:39.450Z,42.37
2019-01-25T04:39:26.575Z,50.90
2019-01-25T04:42:13.663Z,41.80
2019-01-25T04:45:00.626Z,40.00
2019-01-25T04:47:47.487Z,30.77
2019-01-25T04:50:34.522Z,53.13
2019-01-25T04:53:21.231Z,43.33
2019-01-25T04:56:08.385Z,40.60
2019-01-25T04:58:55.626Z,50.20
2019-01-25T05:01:42.923Z,46.27
2019-01-25T05:04:35.594Z,43.30
2019-01-25T05:07:22.406Z,30.83
2019-01-25T05:10:09.469Z,51.53
2019-01-25T05:12:56.229Z,45.37
2019-01-25T05:15:43.127Z,43.20
2019-01-25T05:18:30.277Z,55.50
2019-01-25T05:21:24.189Z,36.10
2019-01-25T05:24:12.154Z,40.17
2019-01-25T05:26:59.610Z,40.53
2019-01-25T05:29:50.976Z,49.10
2019-01-25T05:32:38.138Z,37.93
2019-01-25T05:35:25.305Z,43.97
2019-01-25T05:38:12.421Z,41.73
2019-01-25T05:40:59.502Z,40.90
2019-01-25T05:43:46.522Z,35.50
2019-01-25T05:46:33.884Z,45.97
2019-01-25T05:49:24.229Z,42.27
2019-01-25T05:52:19.004Z,35.20
2019-01-25T05:55:06.299Z,42.00
2019-01-25T05:57:59.847Z,34.90
2019-01-25T06:00:46.634Z,41.03
2019-01-25T06:03:33.851Z,39.97
2019-01-25T06:06:21.072Z,34.30
2019-01-25T06:09:09.758Z,31.73
2019-01-25T06:11:57.091Z,54.80
2019-01-25T06:14:44.703Z,36.37
2019-01-25T06:17:31.903Z,46.57
2019-01-25T06:20:18.981Z,54.27
2019-01-25T06:23:06.178Z,44.40
2019-01-25T06:25:54.157Z,53.73
2019-01-25T06:28:41.275Z,46.43
2019-01-25T06:31:28.614Z,49.37
2019-01-25T06:34:15.804Z,54.37
2019-01-25T06:37:02.965Z,52.13
2019-01-25T06:39:51.082Z,50.10
2019-01-25T06:42:38.188Z,54.93
2019-01-25T06:45:25.787Z,47.30
2019-01-25T06:48:13.378Z,45.07
2019-01-25T06:51:00.733Z,40.57
2019-01-25T06:53:47.986Z,60.87
2019-01-25T06:56:35.348Z,45.20
2019-01-25T06:59:30.172Z,46.07
2019-01-25T07:02:21.945Z,50.53
2019-01-25T07:05:09.385Z,58.43
2019-01-25T07:07:56.912Z,43.17
2019-01-25T07:10:44.363Z,47.20
2019-01-25T07:13:31.437Z,43.07
2019-01-25T07:16:18.575Z,47.93
2019-01-25T07:19:06.122Z,45.13
2019-01-25T07:21:54.970Z,51.97
2019-01-25T07:24:43.460Z,50.70
2019-01-25T07:27:31.011Z,46.57
2019-01-25T07:30:18.444Z,49.80
2019-01-25T07:33:05.778Z,50.97
2019-01-25T07:35:53.026Z,42.73
2019-01-25T07:38:40.585Z,49.57
2019-01-25T07:41:27.665Z,51.23
2019-01-25T07:44:15.098Z,46.13
2019-01-25T07:47:02.436Z,59.60
2019-01-25T07:49:49.476Z,43.53
2019-01-25T07:52:36.380Z,55.43
2019-01-25T07:55:23.755Z,58.53
2019-01-25T07:58:10.882Z,51.27
2019-01-25T08:00:58.127Z,47.07
2019-01-25T08:03:46.268Z,48.33
2019-01-25T08:06:33.673Z,46.60
2019-01-25T08:09:20.959Z,59.40
2019-01-25T08:12:08.426Z,56.97
2019-01-25T08:14:56.000Z,47.33
2019-01-25T08:17:43.156Z,49.20
2019-01-25T08:20:30.928Z,48.67
2019-01-25T08:23:18.173Z,51.20
2019-01-25T08:26:05.189Z,45.67
2019-01-25T08:28:52.362Z,58.73
2019-01-25T08:31:39.815Z,52.07
2019-01-25T08:34:27.233Z,50.70
2019-01-25T08:37:14.420Z,58.07
2019-01-25T08:40:02.144Z,63.23
2019-01-25T08:42:49.612Z,49.63
2019-01-25T08:45:36.494Z,60.20
2019-01-25T08:48:23.856Z,56.53
2019-01-25T08:51:11.326Z,71.23
2019-01-25T08:53:58.383Z,59.07
2019-01-25T08:56:45.828Z,50.30
2019-01-25T08:59:33.108Z,61.40
2019-01-25T09:02:20.563Z,65.50
2019-01-25T09:05:10.164Z,55.90
2019-01-25T09:07:58.494Z,65.50
2019-01-25T09:10:45.796Z,63.90
2019-01-25T09:13:32.819Z,82.63
2019-01-25T09:16:23.349Z,61.73
2019-01-25T09:19:10.978Z,80.30
2019-01-25T09:21:58.515Z,68.90
2019-01-25T09:24:45.619Z,63.73
2019-01-25T09:27:33.246Z,69.93
2019-01-25T09:30:20.974Z,51.77
2019-01-25T09:33:09.177Z,69.37
2019-01-25T09:35:56.273Z,57.33
2019-01-25T09:38:48.210Z,53.70
2019-01-25T09:41:36.247Z,72.47
2019-01-25T09:44:23.669Z,58.83
2019-01-25T09:47:11.024Z,63.97
2019-01-25T09:50:00.298Z,52.90
2019-01-25T09:52:47.448Z,54.93
2019-01-25T09:55:34.793Z,58.63
2019-01-25T09:58:23.012Z,71.53
2019-01-25T10:01:10.400Z,70.90
2019-01-25T10:03:58.099Z,74.83
2019-01-25T10:06:44.946Z,53.30
2019-01-25T10:09:33.232Z,74.70
2019-01-25T10:12:20.405Z,68.57
2019-01-25T10:15:08.972Z,56.97
2019-01-25T10:17:59.524Z,59.87
2019-01-25T10:20:47.194Z,62.67
2019-01-25T10:23:39.147Z,56.47
2019-01-25T10:26:24.273Z,57.17
2019-01-25T10:29:11.425Z,54.97
2019-01-25T10:31:58.933Z,76.33
2019-01-25T10:34:46.391Z,59.43
2019-01-25T10:37:34.412Z,62.43
2019-01-25T10:40:21.875Z,64.47
2019-01-25T10:43:10.378Z,51.07
2019-01-25T10:45:57.615Z,54.17
2019-01-25T10:48:47.240Z,55.97
2019-01-25T10:51:34.577Z,50.90
2019-01-25T10:54:21.635Z,52.87
2019-01-25T10:57:09.178Z,62.40
2019-01-25T10:59:56.730Z,57.03
2019-01-25T11:02:44.376Z,54.50
2019-01-25T11:05:34.855Z,60.70
2019-01-25T11:08:21.699Z,68.90
2019-01-25T11:11:08.854Z,52.30
2019-01-25T11:13:56.558Z,48.07
2019-01-25T11:16:44.198Z,51.80
2019-01-25T11:19:31.786Z,57.07
2019-01-25T11:22:19.238Z,50.73
2019-01-25T11:25:15.648Z,66.10
2019-01-25T11:28:03.166Z,36.13
2019-01-25T11:30:50.770Z,53.60
2019-01-25T12:43:08.301Z,39.27
2019-01-25T12:45:55.641Z,38.50
2019-01-25T12:48:43.981Z,42.67
2019-01-25T12:51:34.105Z,40.23
2019-01-25T12:54:21.665Z,44.90
2019-01-25T12:57:09.584Z,33.80
2019-01-25T12:59:57.989Z,35.00
2019-01-25T13:02:46.978Z,32.27
2019-01-25T13:05:34.462Z,41.67
2019-01-25T13:08:23.593Z,36.80
2019-01-25T13:11:19.872Z,31.90
2019-01-25T13:14:08.734Z,36.23
2019-01-25T13:16:56.024Z,38.70
2019-01-25T13:19:43.808Z,38.83
2019-01-25T13:22:41.796Z,39.90
2019-01-25T13:25:31.206Z,42.20
2019-01-25T13:28:20.313Z,46.00
2019-01-25T13:31:22.231Z,48.60
2019-01-25T13:34:09.383Z,37.50
2019-01-25T13:36:57.189Z,35.50
2019-01-25T13:39:45.051Z,36.67
2019-01-25T13:42:33.067Z,37.33
2019-01-25T13:45:22.789Z,49.83
2019-01-25T13:48:10.198Z,40.67
2019-01-25T13:50:58.210Z,39.83
2019-01-25T13:53:45.241Z,42.70
2019-01-25T13:56:32.701Z,39.27
2019-01-25T13:59:22.183Z,45.93
2019-01-25T14:02:09.256Z,38.90
2019-01-25T14:04:56.530Z,41.47
2019-01-25T14:07:45.207Z,39.23
2019-01-25T14:10:34.046Z,47.07
2019-01-25T14:13:21.862Z,45.60
2019-01-25T14:16:08.947Z,37.87
2019-01-25T14:18:59.562Z,39.53
2019-01-25T14:21:47.361Z,47.10
2019-01-25T14:24:34.202Z,56.75
2019-01-25T14:27:21.153Z,47.67
2019-01-25T14:30:13.442Z,55.83
2019-01-25T14:33:00.561Z,48.23
2019-01-25T14:35:48.041Z,47.70
2019-01-25T14:38:35.192Z,51.20
2019-01-25T14:41:22.399Z,49.67
2019-01-25T14:44:09.924Z,49.93
2019-01-25T14:47:00.656Z,43.60
2019-01-25T14:49:48.960Z,43.33
2019-01-25T14:52:36.114Z,50.87
2019-01-25T14:55:22.922Z,37.07
2019-01-25T14:58:10.410Z,45.13
2019-01-25T15:00:57.862Z,42.00
2019-01-25T15:03:44.860Z,40.70
2019-01-25T15:06:33.578Z,38.67
2019-01-25T15:09:20.838Z,31.37
2019-01-25T15:12:08.055Z,36.30
2019-01-25T15:14:55.203Z,35.50
2019-01-25T15:17:42.438Z,24.83
2019-01-25T15:20:30.655Z,36.70
2019-01-25T15:23:18.213Z,27.40
2019-01-25T15:26:06.605Z,27.13
2019-01-25T15:28:54.684Z,32.03
2019-01-25T15:31:42.658Z,36.57
2019-01-25T15:34:30.019Z,34.43
2019-01-25T15:37:17.387Z,42.50
2019-01-25T15:40:05.376Z,35.07
2019-01-25T15:42:52.632Z,38.53
2019-01-25T15:45:39.482Z,25.90
2019-01-25T15:48:26.974Z,32.27
2019-01-25T15:51:14.347Z,26.63
2019-01-25T15:54:03.970Z,32.00
2019-01-25T15:56:51.362Z,21.83
2019-01-25T15:59:38.672Z,39.93
2019-01-25T16:02:27.718Z,45.40
2019-01-25T16:05:16.098Z,26.07
2019-01-25T16:08:02.892Z,21.93
2019-01-25T16:10:50.438Z,43.67
2019-01-25T16:13:37.867Z,33.20
2019-01-25T16:16:25.763Z,22.03
2019-01-25T16:19:13.948Z,32.33
2019-01-25T16:22:01.320Z,25.20
2019-01-25T16:24:49.335Z,35.40
2019-01-25T16:27:36.153Z,37.33
2019-01-25T16:30:24.470Z,55.17
2019-01-25T16:33:11.543Z,34.20
2019-01-25T16:35:59.502Z,25.47
2019-01-25T16:38:46.926Z,54.43
2019-01-25T16:41:34.406Z,20.87
2019-01-25T16:44:25.803Z,34.40
2019-01-25T16:47:11.451Z,34.30
2019-01-25T16:49:58.654Z,28.33
2019-01-25T16:52:46.012Z,35.73
2019-01-25T16:55:35.181Z,31.17
2019-01-25T16:58:22.944Z,38.60
2019-01-25T17:01:10.221Z,38.60
2019-01-25T17:03:58.729Z,23.20
2019-01-25T17:06:46.951Z,29.00
2019-01-25T17:09:34.516Z,31.67
2019-01-25T17:12:21.917Z,22.83
2019-01-25T17:15:09.746Z,33.73
2019-01-25T17:17:57.217Z,28.80
2019-01-25T17:20:44.647Z,29.93
2019-01-25T17:23:32.243Z,29.83
2019-01-25T17:26:19.518Z,30.50
2019-01-25T17:29:06.458Z,36.30
2019-01-25T17:31:53.752Z,27.00
2019-01-25T17:34:41.402Z,36.30
2019-01-25T17:37:28.604Z,42.83
2019-01-25T17:40:16.523Z,31.33
2019-01-25T17:43:04.662Z,33.67
2019-01-25T17:45:52.338Z,30.17
2019-01-25T17:48:39.853Z,30.33
2019-01-25T17:51:27.338Z,29.20
2019-01-25T17:54:16.152Z,28.60
2019-01-25T17:57:04.110Z,26.57
2019-01-25T17:59:51.061Z,26.33
2019-01-25T18:02:39.913Z,40.10
2019-01-25T18:05:27.416Z,33.03
2019-01-25T18:08:14.614Z,37.40
2019-01-25T18:11:02.152Z,48.17
2019-01-25T18:13:49.208Z,28.53
2019-01-25T18:16:36.880Z,23.40
2019-01-25T18:19:24.043Z,46.60
2019-01-25T18:22:12.214Z,22.33
2019-01-25T18:25:00.232Z,28.33
2019-01-25T18:27:49.186Z,23.23
2019-01-25T18:30:47.034Z,25.37
2019-01-25T18:33:34.408Z,28.20
2019-01-25T18:36:21.685Z,29.30
2019-01-25T18:39:09.505Z,32.17
2019-01-25T18:41:57.277Z,28.27
2019-01-25T18:44:45.905Z,38.70
2019-01-25T18:47:33.378Z,23.80
2019-01-25T18:50:20.941Z,29.20
2019-01-25T18:53:08.314Z,23.67
2019-01-25T18:55:56.858Z,27.30
2019-01-25T18:58:44.770Z,32.90
2019-01-25T19:01:31.854Z,34.20
2019-01-25T19:04:19.378Z,22.10
2019-01-25T19:07:06.699Z,26.50
2019-01-25T19:09:53.748Z,34.50
2019-01-25T19:12:40.841Z,21.00
2019-01-25T19:15:28.837Z,32.47
2019-01-25T19:18:16.454Z,28.83
2019-01-25T19:21:04.056Z,36.00
2019-01-25T19:23:51.485Z,23.77
2019-01-25T19:26:38.817Z,27.40
2019-01-25T19:29:26.206Z,27.07
2019-01-25T19:32:13.114Z,33.27
2019-01-25T19:35:00.326Z,29.23
2019-01-25T19:37:47.422Z,24.90
2019-01-25T19:40:35.361Z,31.17
2019-01-25T19:43:22.674Z,39.23
2019-01-25T19:46:10.066Z,31.10
2019-01-25T19:48:58.250Z,22.37
2019-01-25T19:51:45.446Z,24.67
2019-01-25T19:54:32.858Z,28.53
2019-01-25T19:57:20.352Z,21.43
2019-01-25T20:00:11.047Z,31.10
2019-01-25T20:02:58.703Z,34.57
2019-01-25T20:05:45.748Z,34.73
2019-01-25T20:08:34.342Z,30.37
2019-01-25T20:11:22.083Z,48.30
2019-01-25T20:14:08.917Z,26.40
2019-01-25T20:16:56.451Z,26.13
2019-01-25T20:19:44.112Z,26.20
2019-01-25T20:22:31.693Z,30.43
2019-01-25T20:25:18.981Z,28.30
2019-01-25T20:28:07.345Z,29.10
2019-01-25T20:30:54.616Z,25.80
2019-01-25T20:33:41.952Z,33.97
2019-01-25T20:36:29.685Z,29.60
2019-01-25T20:39:17.332Z,28.07
2019-01-25T20:42:04.887Z,31.37
2019-01-25T20:44:52.438Z,35.20
2019-01-25T20:47:40.032Z,27.00
2019-01-25T20:50:28.502Z,30.17
2019-01-25T20:53:16.047Z,39.30
2019-01-25T20:56:03.259Z,26.93
2019-01-25T20:58:50.563Z,25.60
2019-01-25T21:01:38.056Z,36.40
2019-01-25T21:04:25.226Z,40.30
2019-01-25T21:07:12.250Z,29.83
2019-01-25T21:09:59.454Z,27.27
2019-01-25T21:12:46.917Z,28.00
2019-01-25T21:15:35.645Z,38.97
2019-01-25T21:18:23.101Z,25.47
2019-01-25T21:21:10.334Z,42.53
2019-01-25T21:23:57.614Z,36.93
2019-01-25T21:26:44.669Z,36.40
2019-01-25T21:29:31.950Z,25.00
2019-01-25T21:32:19.213Z,30.77
2019-01-25T21:35:07.147Z,32.47
2019-01-25T21:37:54.442Z,26.80
2019-01-25T21:40:41.631Z,28.77
2019-01-25T21:43:28.693Z,29.83
2019-01-25T21:46:16.122Z,35.00
2019-01-25T21:49:03.535Z,35.97
2019-01-25T21:51:50.993Z,39.30
2019-01-25T21:54:38.031Z,35.13
2019-01-25T21:57:25.233Z,34.80
2019-01-25T22:00:17.151Z,26.43
2019-01-25T22:03:04.729Z,34.17
2019-01-25T22:05:51.849Z,31.63
2019-01-25T22:08:38.705Z,29.77
2019-01-25T22:11:25.734Z,23.47
2019-01-25T22:14:12.492Z,30.07
2019-01-25T22:16:59.843Z,29.00
2019-01-25T22:19:46.801Z,30.20
2019-01-25T22:22:33.969Z,38.00
2019-01-25T22:25:21.274Z,36.83
2019-01-25T22:28:08.733Z,33.83
2019-01-25T22:30:56.326Z,32.73
2019-01-25T22:33:43.755Z,32.30
2019-01-25T22:36:30.648Z,29.67
2019-01-25T22:39:18.286Z,36.47
2019-01-25T22:42:05.364Z,36.20
2019-01-25T22:44:52.616Z,33.60
2019-01-25T22:47:40.479Z,28.37
2019-01-25T22:50:28.637Z,34.83
2019-01-25T22:53:15.757Z,37.83
2019-01-25T22:56:02.569Z,40.90
2019-01-25T22:58:49.836Z,43.50
2019-01-25T23:01:39.996Z,55.07
2019-01-25T23:04:46.213Z,35.67
2019-01-25T23:07:33.457Z,33.43
2019-01-25T23:10:21.380Z,38.63
2019-01-25T23:13:08.663Z,41.23
2019-01-25T23:15:55.503Z,45.73
2019-01-25T23:18:42.617Z,28.07
2019-01-25T23:21:30.364Z,32.77
2019-01-25T23:24:17.571Z,35.60
2019-01-25T23:27:04.619Z,33.60
2019-01-25T23:29:51.464Z,34.00
2019-01-25T23:32:38.762Z,34.10
2019-01-25T23:35:26.040Z,37.20
2019-01-25T23:38:13.381Z,44.00
2019-01-25T23:41:00.626Z,37.63
2019-01-25T23:43:47.874Z,43.40
2019-01-25T23:46:35.400Z,32.30
2019-01-25T23:49:22.857Z,31.13
2019-01-25T23:52:09.877Z,33.63
2019-01-25T23:54:57.607Z,39.80
2019-01-25T23:57:44.964Z,42.13
